Time;durP1;ratioP1;P1;durP2;ratioP2;P2;SDS_P1;SDS_P2;PMS_P1;PMS_P2;Temp;Humidity;BMP_temperature;BMP_pressure;BME280_temperature;BME280_humidity;BME280_pressure;Samples;Min_cycle;Max_cycle;Signal;HPM_P1;HPM_P2
2022/07/04 00:00:00;;;;;;;0.2;0.2;;;;;;;17.7;100.0;101740;;;;
2022/07/04 00:01:00;;;;;;;0.2;0.2;;;;;;;17.7;100.0;101750;;;;
2022/07/04 00:02:00;;;;;;;0.2;0.2;;;;;;;17.7;100.0;101750;;;;
2022/07/04 00:03:00;;;;;;;0.2;0.2;;;;;;;17.6;100.0;101750;;;;
2022/07/04 00:04:00;;;;;;;0.2;0.2;;;;;;;17.6;100.0;101750;;;;
2022/07/04 00:05:00;;;;;;;0.2;0.2;;;;;;;17.6;100.0;101750;;;;
2022/07/04 00:06:00;;;;;;;0.2;0.2;;;;;;;17.6;100.0;101750;;;;
2022/07/04 00:07:00;;;;;;;0.2;0.2;;;;;;;17.6;100.0;101750;;;;
2022/07/04 00:08:00;;;;;;;0.2;0.2;;;;;;;17.6;100.0;101750;;;;
2022/07/04 00:09:00;;;;;;;0.2;0.2;;;;;;;17.5;100.0;101740;;;;
2022/07/04 00:10:00;;;;;;;0.2;0.2;;;;;;;17.5;100.0;101740;;;;
2022/07/04 00:11:00;;;;;;;0.2;0.2;;;;;;;17.5;100.0;101750;;;;
2022/07/04 00:12:00;;;;;;;0.2;0.2;;;;;;;17.5;100.0;101750;;;;
2022/07/04 00:13:00;;;;;;;0.2;0.2;;;;;;;17.5;100.0;101750;;;;
2022/07/04 00:14:00;;;;;;;0.2;0.2;;;;;;;17.5;100.0;101750;;;;
2022/07/04 00:15:00;;;;;;;0.2;0.2;;;;;;;17.5;100.0;101750;;;;
2022/07/04 00:16:00;;;;;;;0.2;0.2;;;;;;;17.5;100.0;101750;;;;
2022/07/04 00:17:00;;;;;;;0.2;0.2;;;;;;;17.5;100.0;101750;;;;
2022/07/04 00:18:00;;;;;;;0.2;0.2;;;;;;;17.5;100.0;101750;;;;
2022/07/04 00:19:00;;;;;;;0.2;0.2;;;;;;;17.4;100.0;101750;;;;
2022/07/04 00:20:00;;;;;;;0.2;0.2;;;;;;;17.4;100.0;101750;;;;
2022/07/04 00:21:00;;;;;;;0.2;0.2;;;;;;;17.4;100.0;101750;;;;
2022/07/04 00:22:00;;;;;;;0.2;0.2;;;;;;;17.4;100.0;101750;;;;
2022/07/04 00:23:00;;;;;;;0.2;0.2;;;;;;;17.4;100.0;101740;;;;
2022/07/04 00:24:00;;;;;;;0.2;0.2;;;;;;;17.4;100.0;101740;;;;
2022/07/04 00:25:00;;;;;;;0.2;0.2;;;;;;;17.3;100.0;101740;;;;
2022/07/04 00:26:00;;;;;;;0.2;0.2;;;;;;;17.3;100.0;101740;;;;
2022/07/04 00:27:00;;;;;;;0.2;0.2;;;;;;;17.3;100.0;101740;;;;
2022/07/04 00:28:00;;;;;;;0.2;0.2;;;;;;;17.3;100.0;101740;;;;
2022/07/04 00:29:00;;;;;;;0.2;0.2;;;;;;;17.3;100.0;101740;;;;
2022/07/04 00:30:00;;;;;;;0.2;0.2;;;;;;;17.3;100.0;101740;;;;
2022/07/04 00:31:00;;;;;;;0.2;0.2;;;;;;;17.2;100.0;101740;;;;
2022/07/04 00:32:00;;;;;;;0.4;0.4;;;;;;;17.2;100.0;101740;;;;
2022/07/04 00:33:00;;;;;;;0.4;0.4;;;;;;;17.3;100.0;101740;;;;
2022/07/04 00:34:00;;;;;;;0.4;0.4;;;;;;;17.3;100.0;101740;;;;
2022/07/04 00:35:00;;;;;;;0.4;0.4;;;;;;;17.2;100.0;101740;;;;
2022/07/04 00:36:00;;;;;;;0.4;0.4;;;;;;;17.2;100.0;101740;;;;
2022/07/04 00:37:00;;;;;;;0.4;0.4;;;;;;;17.2;100.0;101740;;;;
2022/07/04 00:38:00;;;;;;;0.4;0.4;;;;;;;17.2;100.0;101740;;;;
2022/07/04 00:39:00;;;;;;;0.4;0.4;;;;;;;16.9;100.0;101740;;;;
2022/07/04 00:40:00;;;;;;;0.4;0.4;;;;;;;16.9;100.0;101740;;;;
2022/07/04 00:41:00;;;;;;;0.4;0.4;;;;;;;17.0;100.0;101740;;;;
2022/07/04 00:42:00;;;;;;;0.4;0.4;;;;;;;17.0;100.0;101740;;;;
2022/07/04 00:43:02;;;;;;;0.4;0.4;;;;;;;17.0;100.0;101740;;;;
2022/07/04 00:44:10;;;;;;;0.4;0.4;;;;;;;17.0;100.0;101740;;;;
2022/07/04 00:45:00;;;;;;;0.4;0.4;;;;;;;17.0;100.0;101740;;;;
2022/07/04 00:46:03;;;;;;;0.4;0.4;;;;;;;17.0;100.0;101740;;;;
2022/07/04 00:47:00;;;;;;;0.4;0.4;;;;;;;17.0;100.0;101740;;;;
2022/07/04 00:48:00;;;;;;;0.4;0.4;;;;;;;17.0;100.0;101740;;;;
2022/07/04 00:49:00;;;;;;;0.4;0.4;;;;;;;17.0;100.0;101740;;;;
2022/07/04 00:50:00;;;;;;;0.4;0.4;;;;;;;17.0;100.0;101740;;;;
2022/07/04 00:51:00;;;;;;;0.4;0.4;;;;;;;17.0;100.0;101730;;;;
2022/07/04 00:52:00;;;;;;;0.4;0.4;;;;;;;17.0;100.0;101730;;;;
2022/07/04 00:53:00;;;;;;;0.4;0.4;;;;;;;17.0;100.0;101730;;;;
2022/07/04 00:54:00;;;;;;;0.4;0.4;;;;;;;17.0;100.0;101730;;;;
2022/07/04 00:55:00;;;;;;;0.4;0.4;;;;;;;16.9;100.0;101740;;;;
2022/07/04 00:56:00;;;;;;;0.4;0.4;;;;;;;16.9;100.0;101740;;;;
2022/07/04 00:57:00;;;;;;;0.4;0.4;;;;;;;16.9;100.0;101730;;;;
2022/07/04 00:58:00;;;;;;;0.4;0.4;;;;;;;16.9;100.0;101730;;;;
2022/07/04 00:59:00;;;;;;;0.4;0.4;;;;;;;16.8;100.0;101730;;;;
2022/07/04 01:00:00;;;;;;;0.4;0.4;;;;;;;16.8;100.0;101730;;;;
2022/07/04 01:01:00;;;;;;;0.4;0.4;;;;;;;16.6;100.0;101740;;;;
2022/07/04 01:02:00;;;;;;;0.4;0.4;;;;;;;16.6;100.0;101740;;;;
2022/07/04 01:03:00;;;;;;;0.4;0.4;;;;;;;16.7;100.0;101740;;;;
2022/07/04 01:04:01;;;;;;;0.4;0.4;;;;;;;16.6;100.0;101740;;;;
2022/07/04 01:05:00;;;;;;;0.4;0.4;;;;;;;16.6;100.0;101740;;;;
2022/07/04 01:06:00;;;;;;;0.4;0.4;;;;;;;16.6;100.0;101740;;;;
2022/07/04 01:07:00;;;;;;;0.4;0.4;;;;;;;16.5;100.0;101740;;;;
2022/07/04 01:08:00;;;;;;;0.4;0.4;;;;;;;16.5;100.0;101740;;;;
2022/07/04 01:09:00;;;;;;;0.4;0.4;;;;;;;16.6;100.0;101740;;;;
2022/07/04 01:10:00;;;;;;;0.4;0.4;;;;;;;16.6;100.0;101740;;;;
2022/07/04 01:11:00;;;;;;;0.4;0.4;;;;;;;16.7;100.0;101740;;;;
2022/07/04 01:12:00;;;;;;;0.5;0.5;;;;;;;16.7;100.0;101740;;;;
2022/07/04 01:13:00;;;;;;;0.5;0.5;;;;;;;16.6;100.0;101740;;;;
2022/07/04 01:14:00;;;;;;;0.5;0.5;;;;;;;16.6;100.0;101740;;;;
2022/07/04 01:15:00;;;;;;;0.5;0.5;;;;;;;16.3;100.0;101740;;;;
2022/07/04 01:16:00;;;;;;;0.5;0.5;;;;;;;16.3;100.0;101740;;;;
2022/07/04 01:17:00;;;;;;;0.5;0.5;;;;;;;16.4;100.0;101740;;;;
2022/07/04 01:18:00;;;;;;;0.5;0.5;;;;;;;16.4;100.0;101740;;;;
2022/07/04 01:19:00;;;;;;;0.5;0.5;;;;;;;16.5;100.0;101730;;;;
2022/07/04 01:20:00;;;;;;;0.5;0.5;;;;;;;16.5;100.0;101730;;;;
2022/07/04 01:21:00;;;;;;;0.5;0.5;;;;;;;16.5;100.0;101730;;;;
2022/07/04 01:22:04;;;;;;;0.5;0.5;;;;;;;16.5;100.0;101720;;;;
2022/07/04 01:23:00;;;;;;;0.5;0.5;;;;;;;16.5;100.0;101720;;;;
2022/07/04 01:24:00;;;;;;;0.5;0.5;;;;;;;16.5;100.0;101720;;;;
2022/07/04 01:25:00;;;;;;;0.5;0.5;;;;;;;16.4;100.0;101720;;;;
2022/07/04 01:26:02;;;;;;;0.5;0.5;;;;;;;16.2;100.0;101720;;;;
2022/07/04 01:27:00;;;;;;;0.5;0.5;;;;;;;16.2;100.0;101720;;;;
2022/07/04 01:28:00;;;;;;;0.5;0.5;;;;;;;16.2;100.0;101720;;;;
2022/07/04 01:29:00;;;;;;;0.5;0.5;;;;;;;16.1;100.0;101720;;;;
2022/07/04 01:30:00;;;;;;;0.5;0.5;;;;;;;16.1;100.0;101720;;;;
2022/07/04 01:31:00;;;;;;;0.5;0.5;;;;;;;16.0;100.0;101720;;;;
2022/07/04 01:32:08;;;;;;;0.4;0.4;;;;;;;16.0;100.0;101720;;;;
2022/07/04 01:33:00;;;;;;;0.4;0.4;;;;;;;16.0;100.0;101720;;;;
2022/07/04 01:34:00;;;;;;;0.4;0.4;;;;;;;16.0;100.0;101720;;;;
2022/07/04 01:35:00;;;;;;;0.4;0.4;;;;;;;16.1;100.0;101720;;;;
2022/07/04 01:36:00;;;;;;;0.4;0.4;;;;;;;16.1;100.0;101720;;;;
2022/07/04 01:37:00;;;;;;;0.4;0.4;;;;;;;16.1;100.0;101710;;;;
2022/07/04 01:38:00;;;;;;;0.4;0.4;;;;;;;16.1;100.0;101710;;;;
2022/07/04 01:39:01;;;;;;;0.4;0.4;;;;;;;16.1;100.0;101710;;;;
2022/07/04 01:40:00;;;;;;;0.4;0.4;;;;;;;16.1;100.0;101710;;;;
2022/07/04 01:41:00;;;;;;;0.4;0.4;;;;;;;16.0;100.0;101710;;;;
2022/07/04 01:42:00;;;;;;;0.4;0.4;;;;;;;16.0;100.0;101710;;;;
2022/07/04 01:43:00;;;;;;;0.4;0.4;;;;;;;15.9;100.0;101710;;;;
2022/07/04 01:44:00;;;;;;;0.4;0.4;;;;;;;15.9;100.0;101710;;;;
2022/07/04 01:45:00;;;;;;;0.4;0.4;;;;;;;16.0;100.0;101710;;;;
2022/07/04 01:46:00;;;;;;;0.4;0.4;;;;;;;16.0;100.0;101710;;;;
2022/07/04 01:47:00;;;;;;;0.4;0.4;;;;;;;16.0;100.0;101710;;;;
2022/07/04 01:48:00;;;;;;;0.4;0.4;;;;;;;16.0;100.0;101710;;;;
2022/07/04 01:49:00;;;;;;;0.4;0.4;;;;;;;15.5;100.0;101710;;;;
2022/07/04 01:50:00;;;;;;;0.4;0.4;;;;;;;15.5;100.0;101710;;;;
2022/07/04 01:51:00;;;;;;;0.9;0.9;;;;;;;15.8;100.0;101710;;;;
2022/07/04 01:52:00;;;;;;;0.9;0.9;;;;;;;15.8;100.0;101710;;;;
2022/07/04 01:53:00;;;;;;;0.9;0.9;;;;;;;15.9;100.0;101710;;;;
2022/07/04 01:54:00;;;;;;;0.9;0.9;;;;;;;15.9;100.0;101710;;;;
2022/07/04 01:55:00;;;;;;;0.9;0.9;;;;;;;16.0;100.0;101710;;;;
2022/07/04 01:56:00;;;;;;;0.9;0.9;;;;;;;16.0;100.0;101710;;;;
2022/07/04 01:57:00;;;;;;;0.9;0.9;;;;;;;15.7;100.0;101710;;;;
2022/07/04 01:58:00;;;;;;;0.9;0.9;;;;;;;15.7;100.0;101710;;;;
2022/07/04 01:59:01;;;;;;;0.9;0.9;;;;;;;15.7;100.0;101710;;;;
2022/07/04 02:02:00;;;;;;;0.9;0.9;;;;;;;15.8;100.0;101710;;;;
2022/07/04 02:03:00;;;;;;;0.9;0.9;;;;;;;15.8;100.0;101710;;;;
2022/07/04 02:04:01;;;;;;;0.9;0.9;;;;;;;15.7;100.0;101700;;;;
2022/07/04 02:05:00;;;;;;;0.9;0.9;;;;;;;15.7;100.0;101700;;;;
2022/07/04 02:06:00;;;;;;;0.9;0.9;;;;;;;15.7;100.0;101700;;;;
2022/07/04 02:07:00;;;;;;;0.9;0.9;;;;;;;15.8;100.0;101710;;;;
2022/07/04 02:08:00;;;;;;;0.9;0.9;;;;;;;15.8;100.0;101710;;;;
2022/07/04 02:10:00;;;;;;;0.9;0.9;;;;;;;15.5;100.0;101710;;;;
2022/07/04 02:11:00;;;;;;;0.4;0.4;;;;;;;15.6;100.0;101710;;;;
2022/07/04 02:13:01;;;;;;;0.4;0.4;;;;;;;15.6;100.0;101700;;;;
2022/07/04 02:14:00;;;;;;;0.4;0.4;;;;;;;15.6;100.0;101700;;;;
2022/07/04 02:15:00;;;;;;;0.4;0.4;;;;;;;15.6;100.0;101700;;;;
2022/07/04 02:16:00;;;;;;;0.4;0.4;;;;;;;15.6;100.0;101700;;;;
2022/07/04 02:17:00;;;;;;;0.4;0.4;;;;;;;15.6;100.0;101700;;;;
2022/07/04 02:18:00;;;;;;;0.4;0.4;;;;;;;15.6;100.0;101700;;;;
2022/07/04 02:19:00;;;;;;;0.4;0.4;;;;;;;15.5;100.0;101700;;;;
2022/07/04 02:20:00;;;;;;;0.4;0.4;;;;;;;15.5;100.0;101700;;;;
2022/07/04 02:21:00;;;;;;;0.4;0.4;;;;;;;15.6;100.0;101700;;;;
2022/07/04 02:22:00;;;;;;;0.4;0.4;;;;;;;15.6;100.0;101700;;;;
2022/07/04 02:23:00;;;;;;;0.4;0.4;;;;;;;15.6;100.0;101700;;;;
2022/07/04 02:24:00;;;;;;;0.4;0.4;;;;;;;15.6;100.0;101700;;;;
2022/07/04 02:25:00;;;;;;;0.4;0.4;;;;;;;15.5;100.0;101700;;;;
2022/07/04 02:26:00;;;;;;;0.4;0.4;;;;;;;15.5;100.0;101700;;;;
2022/07/04 02:27:00;;;;;;;0.4;0.4;;;;;;;15.5;100.0;101700;;;;
2022/07/04 02:28:00;;;;;;;0.4;0.4;;;;;;;15.5;100.0;101700;;;;
2022/07/04 02:29:00;;;;;;;0.4;0.4;;;;;;;15.5;100.0;101700;;;;
2022/07/04 02:30:00;;;;;;;0.4;0.4;;;;;;;15.5;100.0;101700;;;;
2022/07/04 02:31:00;;;;;;;0.4;0.4;;;;;;;15.4;100.0;101700;;;;
2022/07/04 02:32:00;;;;;;;0.4;0.4;;;;;;;15.4;100.0;101700;;;;
2022/07/04 02:33:00;;;;;;;0.4;0.4;;;;;;;15.3;100.0;101690;;;;
2022/07/04 02:34:00;;;;;;;0.4;0.4;;;;;;;15.3;100.0;101690;;;;
2022/07/04 02:35:00;;;;;;;0.4;0.4;;;;;;;15.4;100.0;101690;;;;
2022/07/04 02:36:00;;;;;;;0.4;0.4;;;;;;;15.4;100.0;101690;;;;
2022/07/04 02:37:00;;;;;;;0.4;0.4;;;;;;;15.3;100.0;101690;;;;
2022/07/04 02:38:00;;;;;;;0.4;0.4;;;;;;;15.3;100.0;101690;;;;
2022/07/04 02:39:00;;;;;;;0.4;0.4;;;;;;;15.4;100.0;101700;;;;
2022/07/04 02:40:00;;;;;;;0.4;0.4;;;;;;;15.4;100.0;101700;;;;
2022/07/04 02:41:00;;;;;;;0.4;0.4;;;;;;;15.4;100.0;101700;;;;
2022/07/04 02:42:00;;;;;;;0.4;0.4;;;;;;;15.4;100.0;101700;;;;
2022/07/04 02:43:00;;;;;;;0.4;0.4;;;;;;;15.5;100.0;101700;;;;
2022/07/04 02:44:00;;;;;;;0.4;0.4;;;;;;;15.5;100.0;101700;;;;
2022/07/04 02:45:00;;;;;;;0.4;0.4;;;;;;;15.5;100.0;101700;;;;
2022/07/04 02:46:00;;;;;;;0.4;0.4;;;;;;;15.5;100.0;101700;;;;
2022/07/04 02:47:00;;;;;;;0.4;0.4;;;;;;;15.4;100.0;101700;;;;
2022/07/04 02:48:00;;;;;;;0.4;0.4;;;;;;;15.4;100.0;101700;;;;
2022/07/04 02:49:00;;;;;;;0.4;0.4;;;;;;;15.3;100.0;101700;;;;
2022/07/04 02:50:02;;;;;;;0.4;0.4;;;;;;;15.3;100.0;101700;;;;
2022/07/04 02:51:00;;;;;;;1.9;0.9;;;;;;;15.2;100.0;101700;;;;
2022/07/04 02:52:00;;;;;;;1.9;0.9;;;;;;;15.2;100.0;101700;;;;
2022/07/04 02:53:00;;;;;;;1.9;0.9;;;;;;;15.2;100.0;101700;;;;
2022/07/04 02:54:00;;;;;;;1.9;0.9;;;;;;;15.2;100.0;101700;;;;
2022/07/04 02:55:01;;;;;;;1.9;0.9;;;;;;;15.3;100.0;101700;;;;
2022/07/04 02:56:03;;;;;;;1.9;0.9;;;;;;;15.3;100.0;101700;;;;
2022/07/04 02:57:00;;;;;;;1.9;0.9;;;;;;;15.2;100.0;101700;;;;
2022/07/04 02:58:00;;;;;;;1.9;0.9;;;;;;;15.2;100.0;101700;;;;
2022/07/04 02:59:00;;;;;;;1.9;0.9;;;;;;;15.1;100.0;101710;;;;
2022/07/04 03:00:00;;;;;;;1.9;0.9;;;;;;;15.1;100.0;101710;;;;
2022/07/04 03:01:00;;;;;;;1.9;0.9;;;;;;;15.2;100.0;101710;;;;
2022/07/04 03:02:00;;;;;;;1.9;0.9;;;;;;;15.2;100.0;101710;;;;
2022/07/04 03:03:00;;;;;;;1.9;0.9;;;;;;;15.2;100.0;101710;;;;
2022/07/04 03:04:00;;;;;;;1.9;0.9;;;;;;;15.2;100.0;101710;;;;
2022/07/04 03:05:00;;;;;;;1.9;0.9;;;;;;;15.1;100.0;101710;;;;
2022/07/04 03:06:05;;;;;;;1.9;0.9;;;;;;;15.2;100.0;101710;;;;
2022/07/04 03:07:00;;;;;;;1.9;0.9;;;;;;;15.2;100.0;101710;;;;
2022/07/04 03:08:00;;;;;;;1.9;0.9;;;;;;;15.2;100.0;101710;;;;
2022/07/04 03:09:00;;;;;;;1.9;0.9;;;;;;;15.0;100.0;101710;;;;
2022/07/04 03:10:00;;;;;;;1.9;0.9;;;;;;;15.0;100.0;101710;;;;
2022/07/04 03:11:00;;;;;;;0.5;0.5;;;;;;;15.1;100.0;101710;;;;
2022/07/04 03:12:00;;;;;;;0.5;0.5;;;;;;;15.1;100.0;101710;;;;
2022/07/04 03:13:07;;;;;;;0.5;0.5;;;;;;;15.1;100.0;101720;;;;
2022/07/04 03:14:00;;;;;;;0.5;0.5;;;;;;;15.1;100.0;101720;;;;
2022/07/04 03:15:00;;;;;;;0.5;0.5;;;;;;;15.2;100.0;101720;;;;
2022/07/04 03:16:00;;;;;;;0.5;0.5;;;;;;;15.2;100.0;101720;;;;
2022/07/04 03:17:00;;;;;;;0.5;0.5;;;;;;;15.1;100.0;101720;;;;
2022/07/04 03:18:00;;;;;;;0.5;0.5;;;;;;;15.1;100.0;101720;;;;
2022/07/04 03:19:00;;;;;;;0.5;0.5;;;;;;;15.1;100.0;101720;;;;
2022/07/04 03:20:00;;;;;;;0.5;0.5;;;;;;;15.1;100.0;101720;;;;
2022/07/04 03:21:00;;;;;;;0.5;0.5;;;;;;;15.1;100.0;101720;;;;
2022/07/04 03:22:00;;;;;;;0.5;0.5;;;;;;;15.1;100.0;101720;;;;
2022/07/04 03:23:00;;;;;;;0.5;0.5;;;;;;;15.1;100.0;101720;;;;
2022/07/04 03:24:00;;;;;;;0.5;0.5;;;;;;;15.1;100.0;101720;;;;
2022/07/04 03:25:00;;;;;;;0.5;0.5;;;;;;;15.1;100.0;101730;;;;
2022/07/04 03:26:00;;;;;;;0.5;0.5;;;;;;;15.1;100.0;101730;;;;
2022/07/04 03:27:00;;;;;;;0.5;0.5;;;;;;;15.1;100.0;101730;;;;
2022/07/04 03:28:00;;;;;;;0.5;0.5;;;;;;;15.1;100.0;101730;;;;
2022/07/04 03:29:00;;;;;;;0.5;0.5;;;;;;;15.0;100.0;101740;;;;
2022/07/04 03:30:00;;;;;;;0.5;0.5;;;;;;;15.0;100.0;101740;;;;
2022/07/04 03:31:00;;;;;;;0.9;0.9;;;;;;;15.0;100.0;101730;;;;
2022/07/04 03:32:00;;;;;;;0.9;0.9;;;;;;;15.0;100.0;101730;;;;
2022/07/04 03:33:00;;;;;;;0.9;0.9;;;;;;;14.8;100.0;101730;;;;
2022/07/04 03:34:00;;;;;;;0.9;0.9;;;;;;;14.8;100.0;101730;;;;
2022/07/04 03:35:00;;;;;;;0.9;0.9;;;;;;;14.9;100.0;101730;;;;
2022/07/04 03:36:00;;;;;;;0.9;0.9;;;;;;;14.9;100.0;101730;;;;
2022/07/04 03:37:00;;;;;;;0.9;0.9;;;;;;;14.9;100.0;101730;;;;
2022/07/04 03:38:00;;;;;;;0.9;0.9;;;;;;;14.9;100.0;101730;;;;
2022/07/04 03:39:00;;;;;;;0.9;0.9;;;;;;;14.9;100.0;101730;;;;
2022/07/04 03:40:00;;;;;;;0.9;0.9;;;;;;;14.9;100.0;101730;;;;
2022/07/04 03:41:00;;;;;;;0.9;0.9;;;;;;;14.9;100.0;101740;;;;
2022/07/04 03:42:00;;;;;;;0.9;0.9;;;;;;;14.9;100.0;101740;;;;
2022/07/04 03:43:00;;;;;;;0.9;0.9;;;;;;;14.9;100.0;101730;;;;
2022/07/04 03:44:00;;;;;;;0.9;0.9;;;;;;;14.9;100.0;101730;;;;
2022/07/04 03:45:00;;;;;;;0.9;0.9;;;;;;;14.8;100.0;101740;;;;
2022/07/04 03:46:00;;;;;;;0.9;0.9;;;;;;;14.8;100.0;101740;;;;
2022/07/04 03:47:01;;;;;;;0.9;0.9;;;;;;;14.8;100.0;101740;;;;
2022/07/04 03:48:02;;;;;;;0.9;0.9;;;;;;;14.8;100.0;101740;;;;
2022/07/04 03:49:00;;;;;;;0.9;0.9;;;;;;;14.8;100.0;101740;;;;
2022/07/04 03:50:00;;;;;;;0.9;0.9;;;;;;;14.8;100.0;101740;;;;
2022/07/04 03:51:00;;;;;;;0.4;0.4;;;;;;;14.9;100.0;101740;;;;
2022/07/04 03:52:00;;;;;;;0.4;0.4;;;;;;;14.9;100.0;101740;;;;
2022/07/04 03:53:00;;;;;;;0.4;0.4;;;;;;;14.9;100.0;101750;;;;
2022/07/04 03:54:00;;;;;;;0.4;0.4;;;;;;;14.9;100.0;101750;;;;
2022/07/04 03:55:00;;;;;;;0.4;0.4;;;;;;;14.8;100.0;101750;;;;
2022/07/04 03:56:00;;;;;;;0.4;0.4;;;;;;;14.8;100.0;101750;;;;
2022/07/04 03:57:00;;;;;;;0.4;0.4;;;;;;;14.8;100.0;101760;;;;
2022/07/04 03:58:00;;;;;;;0.4;0.4;;;;;;;14.8;100.0;101760;;;;
2022/07/04 03:59:00;;;;;;;0.4;0.4;;;;;;;14.9;100.0;101770;;;;
2022/07/04 04:00:00;;;;;;;0.4;0.4;;;;;;;14.9;100.0;101770;;;;
2022/07/04 04:01:00;;;;;;;0.4;0.4;;;;;;;14.9;100.0;101770;;;;
2022/07/04 04:02:00;;;;;;;0.4;0.4;;;;;;;14.9;100.0;101770;;;;
2022/07/04 04:03:00;;;;;;;0.4;0.4;;;;;;;14.8;100.0;101770;;;;
2022/07/04 04:06:00;;;;;;;0.4;0.4;;;;;;;14.6;100.0;101770;;;;
2022/07/04 04:07:00;;;;;;;0.4;0.4;;;;;;;14.7;100.0;101770;;;;
2022/07/04 04:08:01;;;;;;;0.4;0.4;;;;;;;14.7;100.0;101770;;;;
2022/07/04 04:09:00;;;;;;;0.4;0.4;;;;;;;14.7;100.0;101770;;;;
2022/07/04 04:10:00;;;;;;;0.4;0.4;;;;;;;14.7;100.0;101770;;;;
2022/07/04 04:11:00;;;;;;;0.5;0.5;;;;;;;14.8;100.0;101770;;;;
2022/07/04 04:12:00;;;;;;;0.5;0.5;;;;;;;14.8;100.0;101770;;;;
2022/07/04 04:13:00;;;;;;;0.5;0.5;;;;;;;14.9;100.0;101770;;;;
2022/07/04 04:14:00;;;;;;;0.5;0.5;;;;;;;14.9;100.0;101770;;;;
2022/07/04 04:15:00;;;;;;;0.5;0.5;;;;;;;14.7;100.0;101770;;;;
2022/07/04 04:16:00;;;;;;;0.5;0.5;;;;;;;14.7;100.0;101770;;;;
2022/07/04 04:17:00;;;;;;;0.5;0.5;;;;;;;14.7;100.0;101770;;;;
2022/07/04 04:18:00;;;;;;;0.5;0.5;;;;;;;14.7;100.0;101770;;;;
2022/07/04 04:19:00;;;;;;;0.5;0.5;;;;;;;14.8;100.0;101780;;;;
2022/07/04 04:20:00;;;;;;;0.5;0.5;;;;;;;14.8;100.0;101780;;;;
2022/07/04 04:21:00;;;;;;;0.5;0.5;;;;;;;14.8;100.0;101780;;;;
2022/07/04 04:22:00;;;;;;;0.5;0.5;;;;;;;14.8;100.0;101780;;;;
2022/07/04 04:23:00;;;;;;;0.5;0.5;;;;;;;14.8;100.0;101780;;;;
2022/07/04 04:24:00;;;;;;;0.5;0.5;;;;;;;14.8;100.0;101780;;;;
2022/07/04 04:25:00;;;;;;;0.5;0.5;;;;;;;14.9;100.0;101770;;;;
2022/07/04 04:26:00;;;;;;;0.5;0.5;;;;;;;14.9;100.0;101770;;;;
2022/07/04 04:27:00;;;;;;;0.5;0.5;;;;;;;14.9;100.0;101780;;;;
2022/07/04 04:28:00;;;;;;;0.5;0.5;;;;;;;14.9;100.0;101780;;;;
2022/07/04 04:29:00;;;;;;;0.5;0.5;;;;;;;15.0;100.0;101770;;;;
2022/07/04 04:30:00;;;;;;;0.5;0.5;;;;;;;15.0;100.0;101770;;;;
2022/07/04 04:31:00;;;;;;;0.4;0.4;;;;;;;14.9;100.0;101780;;;;
2022/07/04 04:32:00;;;;;;;0.4;0.4;;;;;;;14.9;100.0;101780;;;;
2022/07/04 04:33:00;;;;;;;0.4;0.4;;;;;;;15.0;100.0;101780;;;;
2022/07/04 04:34:00;;;;;;;0.4;0.4;;;;;;;15.0;100.0;101780;;;;
2022/07/04 04:35:00;;;;;;;0.4;0.4;;;;;;;14.9;100.0;101780;;;;
2022/07/04 04:36:00;;;;;;;0.4;0.4;;;;;;;14.9;100.0;101780;;;;
2022/07/04 04:37:00;;;;;;;0.4;0.4;;;;;;;15.0;100.0;101780;;;;
2022/07/04 04:38:00;;;;;;;0.4;0.4;;;;;;;15.0;100.0;101780;;;;
2022/07/04 04:39:00;;;;;;;0.4;0.4;;;;;;;14.9;100.0;101780;;;;
2022/07/04 04:40:00;;;;;;;0.4;0.4;;;;;;;14.9;100.0;101780;;;;
2022/07/04 04:41:00;;;;;;;0.4;0.4;;;;;;;14.9;100.0;101790;;;;
2022/07/04 04:42:00;;;;;;;0.4;0.4;;;;;;;14.9;100.0;101790;;;;
2022/07/04 04:43:00;;;;;;;0.4;0.4;;;;;;;14.9;100.0;101790;;;;
2022/07/04 04:44:00;;;;;;;0.4;0.4;;;;;;;14.9;100.0;101790;;;;
2022/07/04 04:45:00;;;;;;;0.4;0.4;;;;;;;14.9;100.0;101790;;;;
2022/07/04 04:46:00;;;;;;;0.4;0.4;;;;;;;14.9;100.0;101790;;;;
2022/07/04 04:47:00;;;;;;;0.4;0.4;;;;;;;14.9;100.0;101790;;;;
2022/07/04 04:48:00;;;;;;;0.4;0.4;;;;;;;14.9;100.0;101790;;;;
2022/07/04 04:49:00;;;;;;;0.4;0.4;;;;;;;14.9;100.0;101790;;;;
2022/07/04 04:50:00;;;;;;;0.4;0.4;;;;;;;14.9;100.0;101790;;;;
2022/07/04 04:51:00;;;;;;;0.5;0.5;;;;;;;14.9;100.0;101790;;;;
2022/07/04 04:52:00;;;;;;;0.5;0.5;;;;;;;14.9;100.0;101790;;;;
2022/07/04 04:53:00;;;;;;;0.5;0.5;;;;;;;14.9;100.0;101790;;;;
2022/07/04 04:54:00;;;;;;;0.5;0.5;;;;;;;14.9;100.0;101790;;;;
2022/07/04 04:55:00;;;;;;;0.5;0.5;;;;;;;14.6;100.0;101790;;;;
2022/07/04 04:56:00;;;;;;;0.5;0.5;;;;;;;14.6;100.0;101790;;;;
2022/07/04 04:57:00;;;;;;;0.5;0.5;;;;;;;14.6;100.0;101790;;;;
2022/07/04 04:58:00;;;;;;;0.5;0.5;;;;;;;14.6;100.0;101790;;;;
2022/07/04 04:59:00;;;;;;;0.5;0.5;;;;;;;14.7;100.0;101790;;;;
2022/07/04 05:00:00;;;;;;;0.5;0.5;;;;;;;14.7;100.0;101790;;;;
2022/07/04 05:01:10;;;;;;;0.5;0.5;;;;;;;14.8;100.0;101790;;;;
2022/07/04 05:02:00;;;;;;;0.5;0.5;;;;;;;14.8;100.0;101790;;;;
2022/07/04 05:03:00;;;;;;;0.5;0.5;;;;;;;14.7;100.0;101780;;;;
2022/07/04 05:04:00;;;;;;;0.5;0.5;;;;;;;14.7;100.0;101780;;;;
2022/07/04 05:05:00;;;;;;;0.5;0.5;;;;;;;14.6;100.0;101780;;;;
2022/07/04 05:06:00;;;;;;;0.5;0.5;;;;;;;14.6;100.0;101780;;;;
2022/07/04 05:07:00;;;;;;;0.5;0.5;;;;;;;14.8;100.0;101780;;;;
2022/07/04 05:08:00;;;;;;;0.5;0.5;;;;;;;14.8;100.0;101780;;;;
2022/07/04 05:09:00;;;;;;;0.5;0.5;;;;;;;14.8;100.0;101780;;;;
2022/07/04 05:10:00;;;;;;;0.5;0.5;;;;;;;14.8;100.0;101780;;;;
2022/07/04 05:11:00;;;;;;;0.5;0.5;;;;;;;15.0;100.0;101770;;;;
2022/07/04 05:12:00;;;;;;;0.5;0.5;;;;;;;15.0;100.0;101770;;;;
2022/07/04 05:13:00;;;;;;;0.5;0.5;;;;;;;14.9;100.0;101770;;;;
2022/07/04 05:14:00;;;;;;;0.5;0.5;;;;;;;14.9;100.0;101770;;;;
2022/07/04 05:15:00;;;;;;;0.5;0.5;;;;;;;14.9;100.0;101770;;;;
2022/07/04 05:16:00;;;;;;;0.5;0.5;;;;;;;14.9;100.0;101770;;;;
2022/07/04 05:17:00;;;;;;;0.5;0.5;;;;;;;15.0;100.0;101770;;;;
2022/07/04 05:18:00;;;;;;;0.5;0.5;;;;;;;15.0;100.0;101770;;;;
2022/07/04 05:19:00;;;;;;;0.5;0.5;;;;;;;14.9;100.0;101770;;;;
2022/07/04 05:20:00;;;;;;;0.5;0.5;;;;;;;14.9;100.0;101770;;;;
2022/07/04 05:21:00;;;;;;;0.5;0.5;;;;;;;15.1;100.0;101780;;;;
2022/07/04 05:22:00;;;;;;;0.5;0.5;;;;;;;15.1;100.0;101780;;;;
2022/07/04 05:23:00;;;;;;;0.5;0.5;;;;;;;15.0;100.0;101780;;;;
2022/07/04 05:24:00;;;;;;;0.5;0.5;;;;;;;15.0;100.0;101780;;;;
2022/07/04 05:25:00;;;;;;;0.5;0.5;;;;;;;15.0;100.0;101780;;;;
2022/07/04 05:26:00;;;;;;;0.5;0.5;;;;;;;15.0;100.0;101780;;;;
2022/07/04 05:27:00;;;;;;;0.5;0.5;;;;;;;15.2;100.0;101770;;;;
2022/07/04 05:28:00;;;;;;;0.5;0.5;;;;;;;15.2;100.0;101770;;;;
2022/07/04 05:29:00;;;;;;;0.5;0.5;;;;;;;15.3;100.0;101780;;;;
2022/07/04 05:30:00;;;;;;;0.5;0.5;;;;;;;15.3;100.0;101780;;;;
2022/07/04 05:31:00;;;;;;;0.4;0.4;;;;;;;15.2;100.0;101770;;;;
2022/07/04 05:32:00;;;;;;;0.4;0.4;;;;;;;15.2;100.0;101770;;;;
2022/07/04 05:33:01;;;;;;;0.4;0.4;;;;;;;15.3;100.0;101770;;;;
2022/07/04 05:34:00;;;;;;;0.4;0.4;;;;;;;15.3;100.0;101770;;;;
2022/07/04 05:35:00;;;;;;;0.4;0.4;;;;;;;15.4;100.0;101770;;;;
2022/07/04 05:36:00;;;;;;;0.4;0.4;;;;;;;15.4;100.0;101770;;;;
2022/07/04 05:37:00;;;;;;;0.4;0.4;;;;;;;15.5;100.0;101780;;;;
2022/07/04 05:38:00;;;;;;;0.4;0.4;;;;;;;15.5;100.0;101780;;;;
2022/07/04 05:39:00;;;;;;;0.4;0.4;;;;;;;15.5;100.0;101780;;;;
2022/07/04 05:40:00;;;;;;;0.4;0.4;;;;;;;15.5;100.0;101780;;;;
2022/07/04 05:41:00;;;;;;;0.4;0.4;;;;;;;15.6;100.0;101780;;;;
2022/07/04 05:42:00;;;;;;;0.4;0.4;;;;;;;15.6;100.0;101780;;;;
2022/07/04 05:43:00;;;;;;;0.4;0.4;;;;;;;15.6;100.0;101790;;;;
2022/07/04 05:44:00;;;;;;;0.4;0.4;;;;;;;15.6;100.0;101790;;;;
2022/07/04 05:45:00;;;;;;;0.4;0.4;;;;;;;15.7;100.0;101790;;;;
2022/07/04 05:46:00;;;;;;;0.4;0.4;;;;;;;15.7;100.0;101790;;;;
2022/07/04 05:47:00;;;;;;;0.4;0.4;;;;;;;15.8;100.0;101800;;;;
2022/07/04 05:48:00;;;;;;;0.4;0.4;;;;;;;15.8;100.0;101800;;;;
2022/07/04 05:49:00;;;;;;;0.4;0.4;;;;;;;15.9;100.0;101800;;;;
2022/07/04 05:50:00;;;;;;;0.4;0.4;;;;;;;15.9;100.0;101800;;;;
2022/07/04 05:51:00;;;;;;;0.4;0.4;;;;;;;15.9;100.0;101800;;;;
2022/07/04 05:52:00;;;;;;;0.4;0.4;;;;;;;15.9;100.0;101800;;;;
2022/07/04 05:53:00;;;;;;;0.4;0.4;;;;;;;16.1;100.0;101790;;;;
2022/07/04 05:54:00;;;;;;;0.4;0.4;;;;;;;16.1;100.0;101790;;;;
2022/07/04 05:55:00;;;;;;;0.4;0.4;;;;;;;16.2;100.0;101790;;;;
2022/07/04 05:56:00;;;;;;;0.4;0.4;;;;;;;16.2;100.0;101790;;;;
2022/07/04 05:59:00;;;;;;;0.4;0.4;;;;;;;16.3;100.0;101790;;;;
2022/07/04 06:00:00;;;;;;;0.4;0.4;;;;;;;16.3;100.0;101790;;;;
2022/07/04 06:01:00;;;;;;;0.4;0.4;;;;;;;16.5;100.0;101790;;;;
2022/07/04 06:02:00;;;;;;;0.4;0.4;;;;;;;16.5;100.0;101790;;;;
2022/07/04 06:03:00;;;;;;;0.4;0.4;;;;;;;16.6;100.0;101790;;;;
2022/07/04 06:04:00;;;;;;;0.4;0.4;;;;;;;16.6;100.0;101790;;;;
2022/07/04 06:05:00;;;;;;;0.4;0.4;;;;;;;16.7;100.0;101790;;;;
2022/07/04 06:06:00;;;;;;;0.4;0.4;;;;;;;16.7;100.0;101790;;;;
2022/07/04 06:07:00;;;;;;;0.4;0.4;;;;;;;16.7;100.0;101790;;;;
2022/07/04 06:08:01;;;;;;;0.4;0.4;;;;;;;16.7;100.0;101790;;;;
2022/07/04 06:09:00;;;;;;;0.4;0.4;;;;;;;16.9;100.0;101800;;;;
2022/07/04 06:10:00;;;;;;;0.4;0.4;;;;;;;16.9;100.0;101800;;;;
2022/07/04 06:11:00;;;;;;;0.3;0.3;;;;;;;17.0;100.0;101800;;;;
2022/07/04 06:12:00;;;;;;;0.3;0.3;;;;;;;17.0;100.0;101800;;;;
2022/07/04 06:13:00;;;;;;;0.3;0.3;;;;;;;17.1;100.0;101800;;;;
2022/07/04 06:14:00;;;;;;;0.3;0.3;;;;;;;17.1;100.0;101800;;;;
2022/07/04 06:15:00;;;;;;;0.3;0.3;;;;;;;17.3;100.0;101800;;;;
2022/07/04 06:16:00;;;;;;;0.3;0.3;;;;;;;17.3;100.0;101800;;;;
2022/07/04 06:17:00;;;;;;;0.3;0.3;;;;;;;17.2;100.0;101810;;;;
2022/07/04 06:18:01;;;;;;;0.3;0.3;;;;;;;17.2;100.0;101810;;;;
2022/07/04 06:19:00;;;;;;;0.3;0.3;;;;;;;17.2;100.0;101810;;;;
2022/07/04 06:20:00;;;;;;;0.3;0.3;;;;;;;17.2;100.0;101810;;;;
2022/07/04 06:21:00;;;;;;;0.3;0.3;;;;;;;17.3;100.0;101800;;;;
2022/07/04 06:22:00;;;;;;;0.3;0.3;;;;;;;17.3;100.0;101800;;;;
2022/07/04 06:23:00;;;;;;;0.3;0.3;;;;;;;17.4;100.0;101810;;;;
2022/07/04 06:24:01;;;;;;;0.3;0.3;;;;;;;17.4;100.0;101810;;;;
2022/07/04 06:25:00;;;;;;;0.3;0.3;;;;;;;17.7;100.0;101810;;;;
2022/07/04 06:26:00;;;;;;;0.3;0.3;;;;;;;17.7;100.0;101810;;;;
2022/07/04 06:27:00;;;;;;;0.3;0.3;;;;;;;17.5;100.0;101810;;;;
2022/07/04 06:28:00;;;;;;;0.3;0.3;;;;;;;17.5;100.0;101810;;;;
2022/07/04 06:29:00;;;;;;;0.3;0.3;;;;;;;17.6;100.0;101810;;;;
2022/07/04 06:30:00;;;;;;;0.3;0.3;;;;;;;17.6;100.0;101810;;;;